createdAt,value
2019-04-14T00:00:33.624Z,43.00
2019-04-14T00:01:56.646Z,43.00
2019-04-14T00:03:06.586Z,43.00
2019-04-14T00:04:16.136Z,43.00
2019-04-14T00:05:21.131Z,43.00
2019-04-14T00:06:26.605Z,43.00
2019-04-14T00:07:31.897Z,43.10
2019-04-14T00:08:37.253Z,43.10
2019-04-14T00:09:43.049Z,43.20
2019-04-14T00:10:48.656Z,43.30
2019-04-14T00:11:54.667Z,43.20
2019-04-14T00:13:00.061Z,43.30
2019-04-14T00:14:05.327Z,43.30
2019-04-14T00:15:23.422Z,43.40
2019-04-14T00:16:18.451Z,43.40
2019-04-14T00:17:23.828Z,43.40
2019-04-14T00:18:29.417Z,43.40
2019-04-14T00:19:34.898Z,43.40
2019-04-14T00:20:40.473Z,43.40
2019-04-14T00:21:45.437Z,43.40
2019-04-14T00:22:51.251Z,43.40
2019-04-14T00:23:56.620Z,43.40
2019-04-14T00:25:02.413Z,43.40
2019-04-14T00:26:31.554Z,43.50
2019-04-14T00:27:36.756Z,43.50
2019-04-14T00:28:42.553Z,43.40
2019-04-14T00:29:47.924Z,43.50
2019-04-14T00:30:53.423Z,43.50
2019-04-14T00:31:58.796Z,43.50
2019-04-14T00:33:06.178Z,43.60
2019-04-14T00:34:29.155Z,43.70
2019-04-14T00:35:39.186Z,43.60
2019-04-14T00:36:45.958Z,43.60
2019-04-14T00:38:08.507Z,43.60
2019-04-14T00:39:16.172Z,43.70
2019-04-14T00:40:29.598Z,43.70
2019-04-14T00:41:47.417Z,43.80
2019-04-14T00:43:09.115Z,43.90
2019-04-14T00:44:31.871Z,43.90
2019-04-14T00:45:46.476Z,43.90
2019-04-14T00:46:49.625Z,43.90
2019-04-14T00:48:03.367Z,44.00
2019-04-14T00:49:02.829Z,44.00
2019-04-14T00:50:07.996Z,44.00
2019-04-14T00:51:13.401Z,44.00
2019-04-14T00:52:18.998Z,44.00
2019-04-14T00:53:23.534Z,44.00
2019-04-14T00:54:28.267Z,44.10
2019-04-14T00:55:33.568Z,44.20
2019-04-14T00:56:39.009Z,44.20
2019-04-14T00:57:44.157Z,44.30
2019-04-14T00:58:49.709Z,44.30
2019-04-14T00:59:55.242Z,44.30
2019-04-14T01:01:00.767Z,44.30
2019-04-14T01:02:05.718Z,44.30
2019-04-14T01:03:11.292Z,44.40
2019-04-14T01:04:16.528Z,44.40
2019-04-14T01:05:21.762Z,44.50
2019-04-14T01:06:27.303Z,44.50
2019-04-14T01:07:32.730Z,44.50
2019-04-14T01:08:38.069Z,44.50
2019-04-14T01:09:44.136Z,44.50
2019-04-14T01:10:49.754Z,44.50
2019-04-14T01:11:55.286Z,44.50
2019-04-14T01:13:00.624Z,44.50
2019-04-14T01:14:05.933Z,44.50
2019-04-14T01:15:11.532Z,44.50
2019-04-14T01:16:20.168Z,44.50
2019-04-14T01:17:22.500Z,44.50
2019-04-14T01:18:27.640Z,44.50
2019-04-14T01:19:33.111Z,44.50
2019-04-14T01:20:38.522Z,44.50
2019-04-14T01:21:43.593Z,44.50
2019-04-14T01:22:48.872Z,44.50
2019-04-14T01:23:54.446Z,44.60
2019-04-14T01:24:59.973Z,44.60
2019-04-14T01:26:05.036Z,44.60
2019-04-14T01:27:10.254Z,44.60
2019-04-14T01:28:15.749Z,44.60
2019-04-14T01:29:20.973Z,44.60
2019-04-14T01:30:26.286Z,44.50
2019-04-14T01:31:31.704Z,44.50
2019-04-14T01:32:37.228Z,44.50
2019-04-14T01:33:42.317Z,44.50
2019-04-14T01:34:47.656Z,44.50
2019-04-14T01:35:53.154Z,44.50
2019-04-14T01:37:07.276Z,44.50
2019-04-14T01:38:12.542Z,44.50
2019-04-14T01:39:17.628Z,44.60
2019-04-14T01:40:22.832Z,44.60
2019-04-14T01:41:28.207Z,44.60
2019-04-14T01:42:33.414Z,44.70
2019-04-14T01:43:38.554Z,44.60
2019-04-14T01:44:43.848Z,44.70
2019-04-14T01:46:00.670Z,44.60
2019-04-14T01:46:54.625Z,44.60
2019-04-14T01:47:59.566Z,44.70
2019-04-14T01:49:05.025Z,44.70
2019-04-14T01:50:10.528Z,44.70
2019-04-14T01:51:26.649Z,44.70
2019-04-14T01:52:50.058Z,44.70
2019-04-14T01:54:08.513Z,44.70
2019-04-14T01:55:17.805Z,44.70
2019-04-14T01:56:25.208Z,44.70
2019-04-14T01:57:35.007Z,44.70
2019-04-14T01:58:44.692Z,44.70
2019-04-14T01:59:50.333Z,44.60
2019-04-14T02:01:12.707Z,44.70
2019-04-14T02:02:20.480Z,44.70
2019-04-14T02:03:25.950Z,44.70
2019-04-14T02:04:31.259Z,44.70
2019-04-14T02:05:36.442Z,44.70
2019-04-14T02:06:41.908Z,44.80
2019-04-14T02:07:47.251Z,44.90
2019-04-14T02:08:52.268Z,44.90
2019-04-14T02:09:57.555Z,44.90
2019-04-14T02:11:03.000Z,44.90
2019-04-14T02:12:08.465Z,44.90
2019-04-14T02:13:13.568Z,45.00
2019-04-14T02:14:19.051Z,45.00
2019-04-14T02:15:24.427Z,45.00
2019-04-14T02:16:37.858Z,44.90
2019-04-14T02:17:35.155Z,44.90
2019-04-14T02:18:40.566Z,45.00
2019-04-14T02:19:46.013Z,45.60
2019-04-14T02:20:51.206Z,45.00
2019-04-14T02:21:56.365Z,45.00
2019-04-14T02:23:01.836Z,45.00
2019-04-14T02:24:07.116Z,45.00
2019-04-14T02:25:12.065Z,45.10
2019-04-14T02:26:17.658Z,45.00
2019-04-14T02:27:23.149Z,45.00
2019-04-14T02:28:28.882Z,45.10
2019-04-14T02:29:34.005Z,44.90
2019-04-14T02:30:47.009Z,44.90
2019-04-14T02:32:09.972Z,44.90
2019-04-14T02:35:37.213Z,44.90
2019-04-14T02:36:41.669Z,45.00
2019-04-14T02:41:10.655Z,45.00
2019-04-14T02:42:20.776Z,45.00
2019-04-14T02:43:25.177Z,45.00
2019-04-14T02:45:35.513Z,45.00
2019-04-14T02:46:49.611Z,45.00
2019-04-14T02:47:53.842Z,45.10
2019-04-14T02:48:53.357Z,45.10
2019-04-14T02:50:01.775Z,45.10
2019-04-14T02:51:05.795Z,45.10
2019-04-14T02:52:14.388Z,45.20
2019-04-14T02:53:15.638Z,45.20
2019-04-14T02:54:32.960Z,45.20
2019-04-14T02:55:21.490Z,45.20
2019-04-14T02:57:41.663Z,45.20
2019-04-14T02:59:49.701Z,45.10
2019-04-14T03:01:07.008Z,45.20
2019-04-14T03:03:16.869Z,45.20
2019-04-14T03:05:22.304Z,45.30
2019-04-14T03:06:25.360Z,45.30
2019-04-14T03:07:40.205Z,45.30
2019-04-14T03:08:51.392Z,45.30
2019-04-14T03:09:46.689Z,45.40
2019-04-14T03:10:53.965Z,45.90
2019-04-14T03:12:01.675Z,45.50
2019-04-14T03:13:18.667Z,45.60
2019-04-14T03:14:19.724Z,45.60
2019-04-14T03:16:33.416Z,45.60
2019-04-14T03:17:38.260Z,45.60
2019-04-14T03:18:44.121Z,45.60
2019-04-14T03:20:07.020Z,45.50
2019-04-14T03:22:28.934Z,45.50
2019-04-14T03:23:53.428Z,45.60
2019-04-14T03:24:46.574Z,45.60
2019-04-14T03:26:12.010Z,45.60
2019-04-14T03:27:30.906Z,45.60
2019-04-14T03:29:43.298Z,45.50
2019-04-14T03:33:48.994Z,45.70
2019-04-14T03:35:50.963Z,45.70
2019-04-14T03:37:46.959Z,45.80
2019-04-14T03:38:50.358Z,45.80
2019-04-14T03:39:52.018Z,45.80
2019-04-14T03:41:04.205Z,45.80
2019-04-14T03:42:00.587Z,45.80
2019-04-14T03:43:11.597Z,45.70
2019-04-14T03:44:25.282Z,45.80
2019-04-14T03:45:28.421Z,45.80
2019-04-14T03:46:36.181Z,45.80
2019-04-14T03:48:55.812Z,45.90
2019-04-14T03:49:45.261Z,45.90
2019-04-14T03:50:56.447Z,45.90
2019-04-14T03:51:57.807Z,45.90
2019-04-14T03:53:23.305Z,46.00
2019-04-14T03:54:03.252Z,46.00
2019-04-14T03:55:09.368Z,46.10
2019-04-14T03:56:04.272Z,46.00
2019-04-14T03:57:06.336Z,46.00
2019-04-14T03:58:13.051Z,46.00
2019-04-14T03:59:17.766Z,46.10
2019-04-14T04:00:22.594Z,46.20
2019-04-14T04:01:28.002Z,46.10
2019-04-14T04:02:33.723Z,46.10
2019-04-14T04:03:39.227Z,46.10
2019-04-14T04:04:44.513Z,46.10
2019-04-14T04:05:49.961Z,46.10
2019-04-14T04:06:55.407Z,46.20
2019-04-14T04:08:00.323Z,46.20
2019-04-14T04:09:08.298Z,46.20
2019-04-14T04:10:14.242Z,46.20
2019-04-14T04:11:19.347Z,46.20
2019-04-14T04:12:24.697Z,46.20
2019-04-14T04:13:30.129Z,46.90
2019-04-14T04:14:35.678Z,46.20
2019-04-14T04:15:41.199Z,46.30
2019-04-14T04:17:03.581Z,46.30
2019-04-14T04:18:13.413Z,46.30
2019-04-14T04:19:35.937Z,46.20
2019-04-14T04:20:57.313Z,46.20
2019-04-14T04:22:19.338Z,46.20
2019-04-14T04:23:31.466Z,46.80
2019-04-14T04:24:41.084Z,46.20
2019-04-14T04:26:06.172Z,46.20
2019-04-14T04:27:13.500Z,46.30
2019-04-14T04:28:36.389Z,46.30
2019-04-14T04:29:46.260Z,46.40
2019-04-14T04:30:53.638Z,46.30
2019-04-14T04:32:03.494Z,46.30
2019-04-14T04:33:26.401Z,46.40
2019-04-14T04:34:33.694Z,46.40
2019-04-14T04:35:43.620Z,46.50
2019-04-14T04:37:01.880Z,46.50
2019-04-14T04:38:18.109Z,46.50
2019-04-14T04:39:30.187Z,46.50
2019-04-14T04:40:35.372Z,46.50
2019-04-14T04:41:40.744Z,46.50
2019-04-14T04:42:45.821Z,46.60
2019-04-14T04:43:51.716Z,46.60
2019-04-14T04:44:57.404Z,46.70
2019-04-14T04:46:02.762Z,46.70
2019-04-14T04:47:07.782Z,46.70
2019-04-14T04:48:13.142Z,46.80
2019-04-14T04:49:22.599Z,46.80
2019-04-14T04:50:24.284Z,46.90
2019-04-14T04:51:29.039Z,46.90
2019-04-14T04:52:34.349Z,47.40
2019-04-14T04:53:39.817Z,46.80
2019-04-14T04:54:44.988Z,46.90
2019-04-14T04:55:50.382Z,46.80
2019-04-14T04:56:55.870Z,46.90
2019-04-14T04:58:01.365Z,46.90
2019-04-14T04:59:06.159Z,46.80
2019-04-14T05:00:11.428Z,46.80
2019-04-14T05:01:16.737Z,46.90
2019-04-14T05:02:22.102Z,46.80
2019-04-14T05:03:27.563Z,46.90
2019-04-14T05:04:32.948Z,47.50
2019-04-14T05:06:13.969Z,47.00
2019-04-14T05:07:18.800Z,47.00
2019-04-14T05:08:24.158Z,47.00
2019-04-14T05:09:38.570Z,47.00
2019-04-14T05:10:48.196Z,47.00
2019-04-14T05:12:11.041Z,47.00
2019-04-14T05:13:16.171Z,47.00
2019-04-14T05:14:39.057Z,46.90
2019-04-14T05:15:45.125Z,47.00
2019-04-14T05:16:50.682Z,46.90
2019-04-14T05:17:55.937Z,47.00
2019-04-14T05:19:12.268Z,47.00
2019-04-14T05:20:07.388Z,47.00
2019-04-14T05:21:12.731Z,47.00
2019-04-14T05:22:19.192Z,47.00
2019-04-14T05:23:23.570Z,47.20
2019-04-14T05:24:29.054Z,47.10
2019-04-14T05:25:34.135Z,47.20
2019-04-14T05:26:39.466Z,47.30
2019-04-14T05:27:45.175Z,47.30
2019-04-14T05:28:50.671Z,47.30
2019-04-14T05:29:55.822Z,47.30
2019-04-14T05:31:01.269Z,47.30
2019-04-14T05:32:06.651Z,47.30
2019-04-14T05:33:12.079Z,47.30
2019-04-14T05:34:17.302Z,48.00
2019-04-14T05:35:22.734Z,47.30
2019-04-14T05:36:28.112Z,47.30
2019-04-14T05:37:33.323Z,47.30
2019-04-14T05:38:38.634Z,47.30
2019-04-14T05:39:44.065Z,47.30
2019-04-14T05:40:49.650Z,47.30
2019-04-14T05:42:00.601Z,47.40
2019-04-14T05:43:02.393Z,47.40
2019-04-14T05:44:07.915Z,47.40
2019-04-14T05:45:13.359Z,47.40
2019-04-14T05:46:18.536Z,47.40
2019-04-14T05:47:24.071Z,47.40
2019-04-14T05:48:29.415Z,47.40
2019-04-14T05:49:41.091Z,47.40
2019-04-14T05:50:40.508Z,47.30
2019-04-14T05:51:45.909Z,47.30
2019-04-14T05:52:51.477Z,47.40
2019-04-14T05:53:56.647Z,47.40
2019-04-14T05:55:02.369Z,47.40
2019-04-14T05:56:07.953Z,47.50
2019-04-14T05:57:13.388Z,47.50
2019-04-14T05:58:18.574Z,47.40
2019-04-14T05:59:24.273Z,47.40
2019-04-14T06:00:29.981Z,47.40
2019-04-14T06:01:34.984Z,47.40
2019-04-14T06:02:39.958Z,47.30
2019-04-14T06:03:45.381Z,47.30
2019-04-14T06:04:50.399Z,47.30
2019-04-14T06:05:55.124Z,47.30
2019-04-14T06:06:59.735Z,47.30
2019-04-14T06:08:04.550Z,47.30
2019-04-14T06:09:09.333Z,47.30
2019-04-14T06:10:13.968Z,47.40
2019-04-14T06:11:18.457Z,47.30
2019-04-14T06:12:23.211Z,47.30
2019-04-14T06:13:27.692Z,47.40
2019-04-14T06:14:32.172Z,47.40
2019-04-14T06:15:36.655Z,47.40
2019-04-14T06:16:41.130Z,47.50
2019-04-14T06:17:45.684Z,47.50
2019-04-14T06:18:50.277Z,47.50
2019-04-14T06:19:54.750Z,47.50
2019-04-14T06:20:59.524Z,47.50
2019-04-14T06:22:04.033Z,47.50
2019-04-14T06:23:08.507Z,47.50
2019-04-14T06:24:13.040Z,47.60
2019-04-14T06:25:17.502Z,47.60
2019-04-14T06:26:21.974Z,47.50
2019-04-14T06:27:26.668Z,47.50
2019-04-14T06:28:31.194Z,47.60
2019-04-14T06:29:35.708Z,47.50
2019-04-14T06:30:41.898Z,47.60
2019-04-14T06:31:53.827Z,47.60
2019-04-14T06:32:59.956Z,47.60
2019-04-14T06:34:18.176Z,47.60
2019-04-14T06:35:26.988Z,47.60
2019-04-14T06:36:41.894Z,47.60
2019-04-14T06:37:53.729Z,47.60
2019-04-14T06:38:59.846Z,47.50
2019-04-14T06:40:07.148Z,47.50
2019-04-14T06:41:13.299Z,47.70
2019-04-14T06:42:17.773Z,47.60
2019-04-14T06:43:22.276Z,47.60
2019-04-14T06:44:26.883Z,47.70
2019-04-14T06:45:32.004Z,47.70
2019-04-14T06:46:36.524Z,47.70
2019-04-14T06:47:41.019Z,47.80
2019-04-14T06:48:45.522Z,47.90
2019-04-14T06:49:50.036Z,47.90
2019-04-14T06:50:54.566Z,48.00
2019-04-14T06:51:59.062Z,48.00
2019-04-14T06:53:03.581Z,48.00
2019-04-14T06:54:08.128Z,48.00
2019-04-14T06:55:12.631Z,48.00
2019-04-14T06:56:17.143Z,48.00
2019-04-14T06:57:21.652Z,48.00
2019-04-14T06:58:26.177Z,48.00
2019-04-14T06:59:30.743Z,48.10
2019-04-14T07:00:35.255Z,48.20
2019-04-14T07:01:40.037Z,48.30
2019-04-14T07:02:45.565Z,48.30
2019-04-14T07:03:50.783Z,49.00
2019-04-14T07:04:55.276Z,48.40
2019-04-14T07:06:00.214Z,48.50
2019-04-14T07:07:04.996Z,48.50
2019-04-14T07:08:09.545Z,48.40
2019-04-14T07:09:14.053Z,48.50
2019-04-14T07:10:18.611Z,48.50
2019-04-14T07:11:23.244Z,48.50
2019-04-14T07:12:27.773Z,48.50
2019-04-14T07:13:32.238Z,48.50
2019-04-14T07:14:36.701Z,48.50
2019-04-14T07:15:41.197Z,48.60
2019-04-14T07:16:45.691Z,48.60
2019-04-14T07:17:50.297Z,48.50
2019-04-14T07:18:54.772Z,48.50
2019-04-14T07:20:02.244Z,48.50
2019-04-14T07:21:05.665Z,48.40
2019-04-14T07:22:10.153Z,48.30
2019-04-14T07:23:14.649Z,48.50
2019-04-14T07:24:19.131Z,48.40
2019-04-14T07:25:23.696Z,48.30
2019-04-14T07:26:28.411Z,48.40
2019-04-14T07:27:32.899Z,48.30
2019-04-14T07:28:37.455Z,48.20
2019-04-14T07:29:46.544Z,48.30
2019-04-14T07:30:55.674Z,48.30
2019-04-14T07:32:01.797Z,48.20
2019-04-14T07:33:07.918Z,48.10
2019-04-14T07:34:17.256Z,48.10
2019-04-14T07:35:23.387Z,48.10
2019-04-14T07:36:35.359Z,48.10
2019-04-14T07:37:44.452Z,48.20
2019-04-14T07:38:53.543Z,48.10
2019-04-14T07:39:59.711Z,48.00
2019-04-14T07:41:14.661Z,48.00
2019-04-14T07:42:37.065Z,48.00
2019-04-14T07:43:43.303Z,47.90
2019-04-14T07:44:49.519Z,47.90
2019-04-14T07:46:04.478Z,48.00
2019-04-14T07:47:16.632Z,48.00
2019-04-14T07:48:22.767Z,48.00
2019-04-14T07:49:44.078Z,48.60
2019-04-14T07:50:50.283Z,48.00
2019-04-14T07:52:12.717Z,48.00
2019-04-14T07:53:18.861Z,47.80
2019-04-14T07:54:30.807Z,48.00
2019-04-14T07:55:40.549Z,48.20
2019-04-14T07:56:46.782Z,48.20
2019-04-14T07:57:58.875Z,48.10
2019-04-14T07:59:11.100Z,48.40
2019-04-14T08:00:32.215Z,48.10
2019-04-14T08:01:41.353Z,48.20
2019-04-14T08:02:53.530Z,48.20
2019-04-14T08:04:14.903Z,48.20
2019-04-14T08:05:23.700Z,48.30
2019-04-14T08:06:28.281Z,48.30
2019-04-14T08:07:32.833Z,48.40
2019-04-14T08:08:37.328Z,48.50
2019-04-14T08:09:41.816Z,48.50
2019-04-14T08:10:46.699Z,48.60
2019-04-14T08:11:51.312Z,48.60
2019-04-14T08:12:55.858Z,48.60
2019-04-14T08:14:00.434Z,48.60
2019-04-14T08:15:06.799Z,48.50
2019-04-14T08:16:11.296Z,48.50
2019-04-14T08:17:15.802Z,48.50
2019-04-14T08:18:20.272Z,48.40
2019-04-14T08:19:24.784Z,48.30
2019-04-14T08:20:29.339Z,48.20
2019-04-14T08:21:33.851Z,48.10
2019-04-14T08:22:38.393Z,47.90
2019-04-14T08:23:42.906Z,47.80
2019-04-14T08:24:47.390Z,47.80
2019-04-14T08:25:51.870Z,47.80
2019-04-14T08:26:56.378Z,47.70
2019-04-14T08:28:00.933Z,47.70
2019-04-14T08:29:05.569Z,47.70
2019-04-14T08:30:10.542Z,47.70
2019-04-14T08:31:15.087Z,47.70
2019-04-14T08:32:19.600Z,47.70
2019-04-14T08:33:24.080Z,47.70
2019-04-14T08:34:28.643Z,47.50
2019-04-14T08:35:33.117Z,47.50
2019-04-14T08:36:37.599Z,47.30
2019-04-14T08:37:42.200Z,47.30
2019-04-14T08:38:46.681Z,47.20
2019-04-14T08:39:51.313Z,47.20
2019-04-14T08:40:55.813Z,47.10
2019-04-14T08:42:02.107Z,47.00
2019-04-14T08:43:08.265Z,46.80
2019-04-14T08:44:20.553Z,46.70
2019-04-14T08:45:29.249Z,46.70
2019-04-14T08:46:50.541Z,46.80
2019-04-14T08:48:24.036Z,46.80
2019-04-14T08:49:48.124Z,46.70
2019-04-14T08:50:54.253Z,46.60
2019-04-14T08:52:03.404Z,46.50
2019-04-14T08:53:09.581Z,46.50
2019-04-14T08:54:21.655Z,46.40
2019-04-14T08:55:27.863Z,46.40
2019-04-14T08:56:50.294Z,46.30
2019-04-14T08:58:05.121Z,46.20
2019-04-14T08:59:13.676Z,46.20
2019-04-14T09:00:19.879Z,46.10
2019-04-14T09:01:37.643Z,46.00
2019-04-14T09:03:00.195Z,45.80
2019-04-14T09:04:15.464Z,45.70
2019-04-14T09:05:36.811Z,45.50
2019-04-14T09:06:45.412Z,45.30
2019-04-14T09:07:57.461Z,45.20
2019-04-14T09:09:12.552Z,44.80
2019-04-14T09:10:18.769Z,44.70
2019-04-14T09:11:36.393Z,44.60
2019-04-14T09:12:42.520Z,44.20
2019-04-14T09:13:47.080Z,44.20
2019-04-14T09:14:57.177Z,44.10
2019-04-14T09:15:58.146Z,43.90
2019-04-14T09:17:02.637Z,43.80
2019-04-14T09:18:07.223Z,43.90
2019-04-14T09:19:11.789Z,43.90
2019-04-14T09:20:16.385Z,43.80
2019-04-14T09:21:20.857Z,43.80
2019-04-14T09:22:25.404Z,43.90
2019-04-14T09:23:29.933Z,43.90
2019-04-14T09:24:34.504Z,44.00
2019-04-14T09:25:39.118Z,44.10
2019-04-14T09:26:43.653Z,44.20
2019-04-14T09:27:48.140Z,44.20
2019-04-14T09:28:52.621Z,44.20
2019-04-14T09:29:57.135Z,44.40
2019-04-14T09:31:01.619Z,44.40
2019-04-14T09:32:08.035Z,44.40
2019-04-14T09:33:12.604Z,44.20
2019-04-14T09:34:17.086Z,43.90
2019-04-14T09:35:21.674Z,44.40
2019-04-14T09:36:26.155Z,43.40
2019-04-14T09:37:30.653Z,43.30
2019-04-14T09:38:35.128Z,43.40
2019-04-14T09:39:39.659Z,43.20
2019-04-14T09:40:44.222Z,43.70
2019-04-14T09:41:48.713Z,42.80
2019-04-14T09:42:53.224Z,42.60
2019-04-14T09:43:57.697Z,42.20
2019-04-14T09:45:02.181Z,41.90
2019-04-14T09:46:06.669Z,41.40
2019-04-14T09:47:11.161Z,41.20
2019-04-14T09:48:16.323Z,41.00
2019-04-14T09:49:20.844Z,40.90
2019-04-14T09:50:25.332Z,40.70
2019-04-14T09:51:29.819Z,40.70
2019-04-14T09:52:34.383Z,40.80
2019-04-14T09:53:38.976Z,40.60
2019-04-14T09:54:43.458Z,41.10
2019-04-14T09:55:47.986Z,40.70
2019-04-14T09:56:52.630Z,40.50
2019-04-14T09:57:57.099Z,40.20
2019-04-14T09:59:01.599Z,40.40
2019-04-14T10:00:07.589Z,40.60
2019-04-14T10:01:12.073Z,40.20
2019-04-14T10:02:16.711Z,39.90
2019-04-14T10:03:21.200Z,39.70
2019-04-14T10:04:25.780Z,39.70
2019-04-14T10:05:30.305Z,39.80
2019-04-14T10:06:34.925Z,39.60
2019-04-14T10:08:43.618Z,38.90
2019-04-14T10:09:48.197Z,39.10
2019-04-14T10:10:52.822Z,39.00
2019-04-14T10:11:57.454Z,39.00
2019-04-14T10:13:01.936Z,38.70
2019-04-14T10:14:06.616Z,38.60
2019-04-14T10:15:11.387Z,38.50
2019-04-14T10:16:15.884Z,38.40
2019-04-14T10:17:20.357Z,38.80
2019-04-14T10:18:24.858Z,38.10
2019-04-14T10:19:29.362Z,37.90
2019-04-14T10:20:33.871Z,37.80
2019-04-14T10:21:38.421Z,37.60
2019-04-14T10:22:42.927Z,37.40
2019-04-14T10:23:47.402Z,37.10
2019-04-14T10:24:51.920Z,36.80
2019-04-14T10:25:56.396Z,36.60
2019-04-14T10:27:00.896Z,36.70
2019-04-14T10:28:05.464Z,36.50
2019-04-14T10:29:10.016Z,36.40
2019-04-14T10:30:14.661Z,36.10
2019-04-14T10:31:19.160Z,36.10
2019-04-14T10:32:23.633Z,36.20
2019-04-14T10:33:28.114Z,36.20
2019-04-14T10:34:32.611Z,36.80
2019-04-14T10:35:37.110Z,36.20
2019-04-14T10:36:41.598Z,36.20
2019-04-14T10:37:46.100Z,36.20
2019-04-14T10:38:50.626Z,36.10
2019-04-14T10:39:55.270Z,35.80
2019-04-14T10:40:59.930Z,35.40
2019-04-14T10:42:04.613Z,34.80
2019-04-14T10:43:09.151Z,34.90
2019-04-14T10:44:13.650Z,33.80
2019-04-14T10:45:18.593Z,33.60
2019-04-14T10:46:23.176Z,33.40
2019-04-14T10:47:27.676Z,33.50
2019-04-14T10:48:32.277Z,33.30
2019-04-14T10:49:36.798Z,33.20
2019-04-14T10:50:41.276Z,33.00
2019-04-14T10:51:45.754Z,32.90
2019-04-14T10:52:50.262Z,32.50
2019-04-14T10:53:54.744Z,32.30
2019-04-14T10:54:59.297Z,32.20
2019-04-14T10:56:03.886Z,32.10
2019-04-14T10:57:08.359Z,32.10
2019-04-14T10:58:12.867Z,32.00
2019-04-14T10:59:17.368Z,32.10
2019-04-14T11:00:21.910Z,32.10
2019-04-14T11:01:26.418Z,32.10
2019-04-14T11:02:31.040Z,32.00
2019-04-14T11:03:35.616Z,31.90
2019-04-14T11:04:40.170Z,31.80
2019-04-14T11:05:46.303Z,31.80
2019-04-14T11:07:01.329Z,31.80
2019-04-14T11:08:05.939Z,31.90
2019-04-14T11:09:14.514Z,32.00
2019-04-14T11:10:19.849Z,32.10
2019-04-14T11:11:24.401Z,32.00
2019-04-14T11:12:28.936Z,32.10
2019-04-14T11:13:33.443Z,32.70
2019-04-14T11:14:37.962Z,32.20
2019-04-14T11:15:42.453Z,32.20
2019-04-14T11:16:47.146Z,32.20
2019-04-14T11:17:51.696Z,32.20
2019-04-14T11:18:56.305Z,32.10
2019-04-14T11:20:00.868Z,32.10
2019-04-14T11:21:05.390Z,32.10
2019-04-14T11:22:10.046Z,32.30
2019-04-14T11:23:14.674Z,32.30
2019-04-14T11:24:19.320Z,32.20
2019-04-14T11:25:23.797Z,32.20
2019-04-14T11:26:28.579Z,32.40
2019-04-14T11:27:33.191Z,32.50
2019-04-14T11:28:37.706Z,32.70
2019-04-14T11:29:42.196Z,32.70
2019-04-14T11:30:46.738Z,32.80
2019-04-14T11:31:55.601Z,32.90
2019-04-14T11:33:01.802Z,32.90
2019-04-14T11:34:06.630Z,33.00
2019-04-14T11:35:21.839Z,33.10
2019-04-14T11:36:28.085Z,33.30
2019-04-14T11:37:40.307Z,33.30
2019-04-14T11:38:49.210Z,33.50
2019-04-14T11:39:53.873Z,33.60
2019-04-14T11:41:00.037Z,33.60
2019-04-14T11:42:04.603Z,33.70
2019-04-14T11:43:09.108Z,33.70
2019-04-14T11:44:14.081Z,33.70
2019-04-14T11:45:19.151Z,33.80
2019-04-14T11:46:23.813Z,33.80
2019-04-14T11:47:28.315Z,33.80
2019-04-14T11:48:32.952Z,33.90
2019-04-14T11:49:37.535Z,34.00
2019-04-14T11:50:42.207Z,34.00
2019-04-14T11:51:55.191Z,33.90
2019-04-14T11:52:53.058Z,33.90
2019-04-14T11:53:57.539Z,34.00
2019-04-14T11:55:02.032Z,34.00
2019-04-14T11:56:06.608Z,34.00
2019-04-14T11:57:11.386Z,34.10
2019-04-14T11:58:16.235Z,34.30
2019-04-14T11:59:22.347Z,34.40
2019-04-14T12:00:44.668Z,34.60
2019-04-14T12:01:53.756Z,34.70
2019-04-14T12:03:05.882Z,34.80
2019-04-14T12:04:28.127Z,34.80
2019-04-14T12:05:34.241Z,34.80
2019-04-14T12:06:48.905Z,34.80
2019-04-14T12:07:55.024Z,34.80
2019-04-14T12:09:01.258Z,34.70
2019-04-14T12:10:08.759Z,34.70
2019-04-14T12:11:13.460Z,34.80
2019-04-14T12:12:17.963Z,34.90
2019-04-14T12:13:22.438Z,34.90
2019-04-14T12:14:26.927Z,35.00
2019-04-14T12:15:34.318Z,35.20
2019-04-14T12:16:37.710Z,36.00
2019-04-14T12:17:42.277Z,35.50
2019-04-14T12:18:46.927Z,35.50
2019-04-14T12:19:51.426Z,35.50
2019-04-14T12:20:55.915Z,35.30
2019-04-14T12:22:08.280Z,36.00
2019-04-14T12:23:06.784Z,35.30
2019-04-14T12:24:11.278Z,35.40
2019-04-14T12:25:15.770Z,35.40
2019-04-14T12:26:20.320Z,35.40
2019-04-14T12:27:24.860Z,35.60
2019-04-14T12:28:29.371Z,35.60
2019-04-14T12:29:34.815Z,35.70
2019-04-14T12:30:39.914Z,35.70
2019-04-14T12:31:46.433Z,35.70
2019-04-14T12:32:51.048Z,35.80
2019-04-14T12:33:55.527Z,35.80
2019-04-14T12:35:00.041Z,35.80
2019-04-14T12:36:07.597Z,35.90
2019-04-14T12:37:12.077Z,35.90
2019-04-14T12:38:16.563Z,35.80
2019-04-14T12:39:23.758Z,35.80
2019-04-14T12:40:28.414Z,35.70
2019-04-14T12:41:35.423Z,35.80
2019-04-14T12:42:44.542Z,35.80
2019-04-14T12:43:53.604Z,35.80
2019-04-14T12:45:08.759Z,35.80
2019-04-14T12:46:33.072Z,35.80
2019-04-14T12:47:53.770Z,35.90
2019-04-14T12:48:59.901Z,35.90
2019-04-14T12:50:16.666Z,36.00
2019-04-14T12:51:28.596Z,36.00
2019-04-14T12:52:33.077Z,36.00
2019-04-14T12:53:37.657Z,36.10
2019-04-14T12:54:42.162Z,36.00
2019-04-14T12:55:46.645Z,36.10
2019-04-14T12:56:51.115Z,36.10
2019-04-14T12:57:59.934Z,36.10
2019-04-14T12:59:09.037Z,36.10
2019-04-14T13:00:16.121Z,36.20
2019-04-14T13:01:22.302Z,36.20
2019-04-14T13:02:28.453Z,36.30
2019-04-14T13:03:33.420Z,36.40
2019-04-14T13:04:37.949Z,36.50
2019-04-14T13:05:42.565Z,36.50
2019-04-14T13:06:47.042Z,36.30
2019-04-14T13:07:51.530Z,36.30
2019-04-14T13:08:56.100Z,36.40
2019-04-14T13:10:00.592Z,36.40
2019-04-14T13:11:05.479Z,36.40
2019-04-14T13:12:10.432Z,36.50
2019-04-14T13:13:15.083Z,36.60
2019-04-14T13:14:19.563Z,36.60
2019-04-14T13:15:24.048Z,36.60
2019-04-14T13:16:28.651Z,36.50
2019-04-14T13:17:33.134Z,36.40
2019-04-14T13:18:37.664Z,36.40
2019-04-14T13:19:42.979Z,36.30
2019-04-14T13:20:47.518Z,36.40
2019-04-14T13:21:52.028Z,36.40
2019-04-14T13:22:56.528Z,36.40
2019-04-14T13:24:01.012Z,36.30
2019-04-14T13:25:05.830Z,36.20
2019-04-14T13:26:10.319Z,36.20
2019-04-14T13:27:14.818Z,36.30
2019-04-14T13:28:19.342Z,36.40
2019-04-14T13:29:23.814Z,36.40
2019-04-14T13:30:32.872Z,36.30
2019-04-14T13:31:37.357Z,36.20
2019-04-14T13:32:41.839Z,36.30
2019-04-14T13:33:46.371Z,36.40
2019-04-14T13:34:51.096Z,36.40
2019-04-14T13:35:55.593Z,36.60
2019-04-14T13:37:00.075Z,36.50
2019-04-14T13:38:04.910Z,36.60
2019-04-14T13:39:12.533Z,36.70
2019-04-14T13:40:15.900Z,36.70
2019-04-14T13:41:20.414Z,36.80
2019-04-14T13:42:24.910Z,36.80
2019-04-14T13:43:29.441Z,36.90
2019-04-14T13:44:33.967Z,37.50
2019-04-14T13:45:38.444Z,36.90
2019-04-14T13:46:42.914Z,36.90
2019-04-14T13:47:47.506Z,36.70
2019-04-14T13:48:52.067Z,36.70
2019-04-14T13:49:56.557Z,36.80
2019-04-14T13:51:01.737Z,36.70
2019-04-14T13:52:06.248Z,36.70
2019-04-14T13:53:10.718Z,36.70
2019-04-14T13:54:15.293Z,36.70
2019-04-14T13:55:19.865Z,37.30
2019-04-14T13:56:24.421Z,36.70
2019-04-14T13:57:28.918Z,36.70
2019-04-14T13:58:33.422Z,36.80
2019-04-14T13:59:37.913Z,36.70
2019-04-14T14:00:42.447Z,36.80
2019-04-14T14:01:46.958Z,36.80
2019-04-14T14:02:51.444Z,36.70
2019-04-14T14:03:55.933Z,36.60
2019-04-14T14:05:00.398Z,36.60
2019-04-14T14:06:05.326Z,36.80
2019-04-14T14:07:09.822Z,36.70
2019-04-14T14:08:14.326Z,36.70
2019-04-14T14:09:18.846Z,36.70
2019-04-14T14:10:23.394Z,36.80
2019-04-14T14:11:45.811Z,36.90
2019-04-14T14:12:51.954Z,37.00
2019-04-14T14:13:58.080Z,37.00
2019-04-14T14:15:20.441Z,37.00
2019-04-14T14:16:29.518Z,37.00
2019-04-14T14:17:35.619Z,37.00
2019-04-14T14:18:47.756Z,37.00
2019-04-14T14:19:56.805Z,37.00
2019-04-14T14:21:18.706Z,37.00
2019-04-14T14:22:27.538Z,37.00
2019-04-14T14:23:36.478Z,37.00
2019-04-14T14:24:54.392Z,37.00
2019-04-14T14:26:06.455Z,37.00
2019-04-14T14:27:11.159Z,37.00
2019-04-14T14:28:15.656Z,37.00
2019-04-14T14:29:20.118Z,36.90
2019-04-14T14:30:24.925Z,36.80
2019-04-14T14:31:29.407Z,36.80
2019-04-14T14:32:35.562Z,36.90
2019-04-14T14:33:40.047Z,37.00
2019-04-14T14:34:44.539Z,37.00
2019-04-14T14:35:48.999Z,37.10
2019-04-14T14:36:53.477Z,37.10
2019-04-14T14:37:57.980Z,37.10
2019-04-14T14:39:02.524Z,37.20
2019-04-14T14:40:07.890Z,37.20
2019-04-14T14:41:14.052Z,37.40